sensor_id;sensor_type;location;lat;lon;timestamp;temperature;humidity
16827;DHT22;8530;49.540;8.576;2023-08-06T00:00:20;16.30;99.90
16827;DHT22;8530;49.540;8.576;2023-08-06T00:02:48;16.30;99.90
16827;DHT22;8530;49.540;8.576;2023-08-06T00:05:15;16.40;99.90
16827;DHT22;8530;49.540;8.576;2023-08-06T00:07:45;16.40;99.90
16827;DHT22;8530;49.540;8.576;2023-08-06T00:10:12;16.50;99.90
16827;DHT22;8530;49.540;8.576;2023-08-06T00:12:39;16.50;99.90
16827;DHT22;8530;49.540;8.576;2023-08-06T00:15:06;16.60;99.90
16827;DHT22;8530;49.540;8.576;2023-08-06T00:17:33;16.50;99.90
16827;DHT22;8530;49.540;8.576;2023-08-06T00:20:00;16.60;99.90
16827;DHT22;8530;49.540;8.576;2023-08-06T00:22:30;16.50;99.90
16827;DHT22;8530;49.540;8.576;2023-08-06T00:24:58;16.50;99.90
16827;DHT22;8530;49.540;8.576;2023-08-06T00:27:25;16.50;99.90
16827;DHT22;8530;49.540;8.576;2023-08-06T00:29:51;16.50;99.90
16827;DHT22;8530;49.540;8.576;2023-08-06T00:32:18;16.40;99.90
16827;DHT22;8530;49.540;8.576;2023-08-06T00:34:48;16.50;99.90
16827;DHT22;8530;49.540;8.576;2023-08-06T00:37:15;16.50;99.90
16827;DHT22;8530;49.540;8.576;2023-08-06T00:39:43;16.50;99.90
16827;DHT22;8530;49.540;8.576;2023-08-06T00:42:11;16.60;99.90
16827;DHT22;8530;49.540;8.576;2023-08-06T00:44:38;16.60;99.90
16827;DHT22;8530;49.540;8.576;2023-08-06T00:47:06;16.60;99.90
16827;DHT22;8530;49.540;8.576;2023-08-06T00:49:34;16.60;99.90
16827;DHT22;8530;49.540;8.576;2023-08-06T00:52:02;16.50;99.90
16827;DHT22;8530;49.540;8.576;2023-08-06T00:54:30;16.50;99.90
16827;DHT22;8530;49.540;8.576;2023-08-06T00:56:59;16.50;99.90
16827;DHT22;8530;49.540;8.576;2023-08-06T00:59:29;16.40;99.90
16827;DHT22;8530;49.540;8.576;2023-08-06T01:01:56;16.40;99.90
16827;DHT22;8530;49.540;8.576;2023-08-06T01:04:23;16.40;99.90
16827;DHT22;8530;49.540;8.576;2023-08-06T01:06:55;16.50;99.90
16827;DHT22;8530;49.540;8.576;2023-08-06T01:09:35;16.50;99.90
16827;DHT22;8530;49.540;8.576;2023-08-06T01:12:12;16.60;99.90
16827;DHT22;8530;49.540;8.576;2023-08-06T01:14:47;16.70;99.90
16827;DHT22;8530;49.540;8.576;2023-08-06T01:17:14;16.70;99.90
16827;DHT22;8530;49.540;8.576;2023-08-06T01:19:41;16.80;99.90
16827;DHT22;8530;49.540;8.576;2023-08-06T01:22:10;16.80;99.90
16827;DHT22;8530;49.540;8.576;2023-08-06T01:24:36;16.80;99.90
16827;DHT22;8530;49.540;8.576;2023-08-06T01:27:11;16.80;99.90
16827;DHT22;8530;49.540;8.576;2023-08-06T01:29:44;16.80;99.90
16827;DHT22;8530;49.540;8.576;2023-08-06T01:32:14;16.80;99.90
16827;DHT22;8530;49.540;8.576;2023-08-06T01:34:44;16.80;99.90
16827;DHT22;8530;49.540;8.576;2023-08-06T01:37:12;16.80;99.90
16827;DHT22;8530;49.540;8.576;2023-08-06T01:39:42;16.90;99.90
16827;DHT22;8530;49.540;8.576;2023-08-06T01:42:08;16.90;99.90
16827;DHT22;8530;49.540;8.576;2023-08-06T01:44:35;17.00;99.90
16827;DHT22;8530;49.540;8.576;2023-08-06T01:47:02;17.10;99.90
16827;DHT22;8530;49.540;8.576;2023-08-06T01:49:28;17.10;99.90
16827;DHT22;8530;49.540;8.576;2023-08-06T01:51:55;17.20;99.90
16827;DHT22;8530;49.540;8.576;2023-08-06T01:54:23;17.20;99.90
16827;DHT22;8530;49.540;8.576;2023-08-06T01:56:50;17.20;99.90
16827;DHT22;8530;49.540;8.576;2023-08-06T01:59:17;17.20;99.90
16827;DHT22;8530;49.540;8.576;2023-08-06T02:01:43;17.20;99.90
16827;DHT22;8530;49.540;8.576;2023-08-06T02:04:10;17.20;99.90
16827;DHT22;8530;49.540;8.576;2023-08-06T02:06:37;17.20;99.90
16827;DHT22;8530;49.540;8.576;2023-08-06T02:09:04;17.20;99.90
16827;DHT22;8530;49.540;8.576;2023-08-06T02:11:32;17.20;99.90
16827;DHT22;8530;49.540;8.576;2023-08-06T02:13:58;17.30;99.90
16827;DHT22;8530;49.540;8.576;2023-08-06T02:16:25;17.30;99.90
16827;DHT22;8530;49.540;8.576;2023-08-06T02:18:52;17.30;99.90
16827;DHT22;8530;49.540;8.576;2023-08-06T02:21:18;17.30;99.90
16827;DHT22;8530;49.540;8.576;2023-08-06T02:23:45;17.30;99.90
16827;DHT22;8530;49.540;8.576;2023-08-06T02:26:12;17.30;99.90
16827;DHT22;8530;49.540;8.576;2023-08-06T02:28:40;17.30;99.90
16827;DHT22;8530;49.540;8.576;2023-08-06T02:31:06;17.30;99.90
16827;DHT22;8530;49.540;8.576;2023-08-06T02:33:33;17.30;99.90
16827;DHT22;8530;49.540;8.576;2023-08-06T02:36:00;17.40;99.90
16827;DHT22;8530;49.540;8.576;2023-08-06T02:38:27;17.30;99.90
16827;DHT22;8530;49.540;8.576;2023-08-06T02:40:54;17.30;99.90
16827;DHT22;8530;49.540;8.576;2023-08-06T02:43:20;17.30;99.90
16827;DHT22;8530;49.540;8.576;2023-08-06T02:45:49;17.30;99.90
16827;DHT22;8530;49.540;8.576;2023-08-06T02:48:15;17.30;99.90
16827;DHT22;8530;49.540;8.576;2023-08-06T02:50:43;17.30;99.90
16827;DHT22;8530;49.540;8.576;2023-08-06T02:53:10;17.30;99.90
16827;DHT22;8530;49.540;8.576;2023-08-06T02:55:37;17.20;99.90
16827;DHT22;8530;49.540;8.576;2023-08-06T02:58:03;17.20;99.90
16827;DHT22;8530;49.540;8.576;2023-08-06T03:00:30;17.20;99.90
16827;DHT22;8530;49.540;8.576;2023-08-06T03:02:58;17.10;99.90
16827;DHT22;8530;49.540;8.576;2023-08-06T03:05:25;17.10;99.90
16827;DHT22;8530;49.540;8.576;2023-08-06T03:07:51;17.10;99.90
16827;DHT22;8530;49.540;8.576;2023-08-06T03:10:18;17.10;99.90
16827;DHT22;8530;49.540;8.576;2023-08-06T03:12:45;17.10;99.90
16827;DHT22;8530;49.540;8.576;2023-08-06T03:15:12;17.10;99.90
16827;DHT22;8530;49.540;8.576;2023-08-06T03:17:39;17.10;99.90
16827;DHT22;8530;49.540;8.576;2023-08-06T03:20:08;17.10;99.90
16827;DHT22;8530;49.540;8.576;2023-08-06T03:22:34;17.10;99.90
16827;DHT22;8530;49.540;8.576;2023-08-06T03:25:01;17.10;99.90
16827;DHT22;8530;49.540;8.576;2023-08-06T03:27:28;17.10;99.90
16827;DHT22;8530;49.540;8.576;2023-08-06T03:29:54;17.10;99.80
16827;DHT22;8530;49.540;8.576;2023-08-06T03:32:21;17.10;99.80
16827;DHT22;8530;49.540;8.576;2023-08-06T03:34:48;17.10;99.80
16827;DHT22;8530;49.540;8.576;2023-08-06T03:37:16;17.10;99.80
16827;DHT22;8530;49.540;8.576;2023-08-06T03:39:43;17.10;99.70
16827;DHT22;8530;49.540;8.576;2023-08-06T03:42:09;17.00;99.70
16827;DHT22;8530;49.540;8.576;2023-08-06T03:44:36;17.00;99.70
16827;DHT22;8530;49.540;8.576;2023-08-06T03:47:03;17.00;99.70
16827;DHT22;8530;49.540;8.576;2023-08-06T03:49:30;17.00;99.70
16827;DHT22;8530;49.540;8.576;2023-08-06T03:51:56;17.00;99.70
16827;DHT22;8530;49.540;8.576;2023-08-06T03:54:24;17.00;99.60
16827;DHT22;8530;49.540;8.576;2023-08-06T03:56:51;17.00;99.90
16827;DHT22;8530;49.540;8.576;2023-08-06T03:59:18;17.00;99.60
16827;DHT22;8530;49.540;8.576;2023-08-06T04:01:44;17.00;99.70
16827;DHT22;8530;49.540;8.576;2023-08-06T04:04:11;17.10;99.60
16827;DHT22;8530;49.540;8.576;2023-08-06T04:06:38;17.00;99.50
16827;DHT22;8530;49.540;8.576;2023-08-06T04:09:04;17.10;99.50
16827;DHT22;8530;49.540;8.576;2023-08-06T04:11:32;17.10;99.50
16827;DHT22;8530;49.540;8.576;2023-08-06T04:13:59;17.10;99.50
16827;DHT22;8530;49.540;8.576;2023-08-06T04:16:26;17.10;99.40
16827;DHT22;8530;49.540;8.576;2023-08-06T04:18:52;17.10;99.40
16827;DHT22;8530;49.540;8.576;2023-08-06T04:21:21;17.10;99.40
16827;DHT22;8530;49.540;8.576;2023-08-06T04:23:47;17.10;99.30
16827;DHT22;8530;49.540;8.576;2023-08-06T04:26:14;17.10;99.30
16827;DHT22;8530;49.540;8.576;2023-08-06T04:28:42;17.10;99.30
16827;DHT22;8530;49.540;8.576;2023-08-06T04:31:09;17.10;99.30
16827;DHT22;8530;49.540;8.576;2023-08-06T04:33:35;17.10;99.30
16827;DHT22;8530;49.540;8.576;2023-08-06T04:36:02;17.10;99.30
16827;DHT22;8530;49.540;8.576;2023-08-06T04:38:29;17.10;99.30
16827;DHT22;8530;49.540;8.576;2023-08-06T04:40:56;17.10;99.30
16827;DHT22;8530;49.540;8.576;2023-08-06T04:43:23;17.10;99.30
16827;DHT22;8530;49.540;8.576;2023-08-06T04:45:53;17.10;99.30
16827;DHT22;8530;49.540;8.576;2023-08-06T04:48:20;17.10;99.40
16827;DHT22;8530;49.540;8.576;2023-08-06T04:50:47;17.10;99.40
16827;DHT22;8530;49.540;8.576;2023-08-06T04:53:14;17.10;99.40
16827;DHT22;8530;49.540;8.576;2023-08-06T04:55:41;17.10;99.40
16827;DHT22;8530;49.540;8.576;2023-08-06T04:58:09;17.10;99.40
16827;DHT22;8530;49.540;8.576;2023-08-06T05:00:36;17.10;99.40
16827;DHT22;8530;49.540;8.576;2023-08-06T05:03:05;17.10;99.40
16827;DHT22;8530;49.540;8.576;2023-08-06T05:05:31;17.10;99.40
16827;DHT22;8530;49.540;8.576;2023-08-06T05:07:58;17.10;99.40
16827;DHT22;8530;49.540;8.576;2023-08-06T05:10:25;17.10;99.40
16827;DHT22;8530;49.540;8.576;2023-08-06T05:12:52;17.10;99.40
16827;DHT22;8530;49.540;8.576;2023-08-06T05:15:19;17.10;99.40
16827;DHT22;8530;49.540;8.576;2023-08-06T05:17:45;17.10;99.40
16827;DHT22;8530;49.540;8.576;2023-08-06T05:20:13;17.10;99.40
16827;DHT22;8530;49.540;8.576;2023-08-06T05:22:41;17.00;99.30
16827;DHT22;8530;49.540;8.576;2023-08-06T05:25:08;17.00;99.30
16827;DHT22;8530;49.540;8.576;2023-08-06T05:27:34;16.90;99.40
16827;DHT22;8530;49.540;8.576;2023-08-06T05:30:01;16.80;99.40
16827;DHT22;8530;49.540;8.576;2023-08-06T05:32:28;16.80;99.50
16827;DHT22;8530;49.540;8.576;2023-08-06T05:34:54;16.70;99.50
16827;DHT22;8530;49.540;8.576;2023-08-06T05:37:22;16.70;99.60
16827;DHT22;8530;49.540;8.576;2023-08-06T05:39:49;16.60;99.70
16827;DHT22;8530;49.540;8.576;2023-08-06T05:42:16;16.60;99.80
16827;DHT22;8530;49.540;8.576;2023-08-06T05:44:43;16.60;99.90
16827;DHT22;8530;49.540;8.576;2023-08-06T05:47:09;16.60;99.90
16827;DHT22;8530;49.540;8.576;2023-08-06T05:49:36;16.60;99.90
16827;DHT22;8530;49.540;8.576;2023-08-06T05:52:04;16.60;99.90
16827;DHT22;8530;49.540;8.576;2023-08-06T05:54:35;16.60;99.90
16827;DHT22;8530;49.540;8.576;2023-08-06T05:57:02;16.70;99.90
16827;DHT22;8530;49.540;8.576;2023-08-06T05:59:28;16.70;99.90
16827;DHT22;8530;49.540;8.576;2023-08-06T06:01:55;16.70;99.90
16827;DHT22;8530;49.540;8.576;2023-08-06T06:04:22;16.80;99.90
16827;DHT22;8530;49.540;8.576;2023-08-06T06:06:48;16.80;99.90
16827;DHT22;8530;49.540;8.576;2023-08-06T06:09:15;16.90;99.90
16827;DHT22;8530;49.540;8.576;2023-08-06T06:11:43;16.90;99.90
16827;DHT22;8530;49.540;8.576;2023-08-06T06:14:10;17.00;99.90
16827;DHT22;8530;49.540;8.576;2023-08-06T06:16:36;17.00;99.90
16827;DHT22;8530;49.540;8.576;2023-08-06T06:19:03;17.00;99.90
16827;DHT22;8530;49.540;8.576;2023-08-06T06:21:30;17.00;99.90
16827;DHT22;8530;49.540;8.576;2023-08-06T06:23:56;17.00;99.90
16827;DHT22;8530;49.540;8.576;2023-08-06T06:26:23;17.10;99.90
16827;DHT22;8530;49.540;8.576;2023-08-06T06:28:51;17.10;99.90
16827;DHT22;8530;49.540;8.576;2023-08-06T06:31:18;17.10;99.90
16827;DHT22;8530;49.540;8.576;2023-08-06T06:33:44;17.10;99.90
16827;DHT22;8530;49.540;8.576;2023-08-06T06:36:11;17.10;99.90
16827;DHT22;8530;49.540;8.576;2023-08-06T06:38:38;17.00;99.90
16827;DHT22;8530;49.540;8.576;2023-08-06T06:41:04;17.00;99.90
16827;DHT22;8530;49.540;8.576;2023-08-06T06:43:32;16.90;99.90
16827;DHT22;8530;49.540;8.576;2023-08-06T06:46:00;16.90;99.90
16827;DHT22;8530;49.540;8.576;2023-08-06T06:48:27;16.90;99.90
16827;DHT22;8530;49.540;8.576;2023-08-06T06:50:54;16.90;99.90
16827;DHT22;8530;49.540;8.576;2023-08-06T06:53:21;16.90;99.90
16827;DHT22;8530;49.540;8.576;2023-08-06T06:55:52;17.00;99.90
16827;DHT22;8530;49.540;8.576;2023-08-06T06:58:19;16.90;99.90
16827;DHT22;8530;49.540;8.576;2023-08-06T07:00:46;17.00;99.90
16827;DHT22;8530;49.540;8.576;2023-08-06T07:03:14;17.00;99.90
16827;DHT22;8530;49.540;8.576;2023-08-06T07:05:42;17.10;99.90
16827;DHT22;8530;49.540;8.576;2023-08-06T07:08:09;17.20;99.90
16827;DHT22;8530;49.540;8.576;2023-08-06T07:10:36;17.30;99.90
16827;DHT22;8530;49.540;8.576;2023-08-06T07:13:02;17.40;99.90
16827;DHT22;8530;49.540;8.576;2023-08-06T07:15:29;17.60;99.90
16827;DHT22;8530;49.540;8.576;2023-08-06T07:17:57;17.90;99.90
16827;DHT22;8530;49.540;8.576;2023-08-06T07:20:25;18.10;99.90
16827;DHT22;8530;49.540;8.576;2023-08-06T07:22:54;18.30;99.90
16827;DHT22;8530;49.540;8.576;2023-08-06T07:25:21;18.40;99.90
16827;DHT22;8530;49.540;8.576;2023-08-06T07:27:48;18.50;99.90
16827;DHT22;8530;49.540;8.576;2023-08-06T07:30:14;18.60;99.90
16827;DHT22;8530;49.540;8.576;2023-08-06T07:32:41;18.70;99.90
16827;DHT22;8530;49.540;8.576;2023-08-06T07:35:08;18.90;99.80
16827;DHT22;8530;49.540;8.576;2023-08-06T07:37:39;19.10;99.70
16827;DHT22;8530;49.540;8.576;2023-08-06T07:40:07;19.30;99.50
16827;DHT22;8530;49.540;8.576;2023-08-06T07:42:34;19.40;99.30
16827;DHT22;8530;49.540;8.576;2023-08-06T07:45:02;19.40;99.00
16827;DHT22;8530;49.540;8.576;2023-08-06T07:47:28;19.50;98.90
16827;DHT22;8530;49.540;8.576;2023-08-06T07:49:55;19.70;98.90
16827;DHT22;8530;49.540;8.576;2023-08-06T07:52:22;19.80;98.60
16827;DHT22;8530;49.540;8.576;2023-08-06T07:54:50;19.80;98.30
16827;DHT22;8530;49.540;8.576;2023-08-06T07:57:16;19.80;98.10
16827;DHT22;8530;49.540;8.576;2023-08-06T07:59:43;19.70;97.90
16827;DHT22;8530;49.540;8.576;2023-08-06T08:02:10;19.70;97.80
16827;DHT22;8530;49.540;8.576;2023-08-06T08:04:37;19.70;97.70
16827;DHT22;8530;49.540;8.576;2023-08-06T08:07:04;19.70;97.60
16827;DHT22;8530;49.540;8.576;2023-08-06T08:09:31;19.70;97.50
16827;DHT22;8530;49.540;8.576;2023-08-06T08:11:59;19.70;97.50
16827;DHT22;8530;49.540;8.576;2023-08-06T08:14:26;19.80;97.50
16827;DHT22;8530;49.540;8.576;2023-08-06T08:16:54;19.80;97.40
16827;DHT22;8530;49.540;8.576;2023-08-06T08:19:21;19.80;97.30
16827;DHT22;8530;49.540;8.576;2023-08-06T08:21:47;19.90;97.20
16827;DHT22;8530;49.540;8.576;2023-08-06T08:24:14;20.10;97.20
16827;DHT22;8530;49.540;8.576;2023-08-06T08:26:41;20.30;97.40
16827;DHT22;8530;49.540;8.576;2023-08-06T08:29:09;20.60;97.10
16827;DHT22;8530;49.540;8.576;2023-08-06T08:31:35;21.00;96.90
16827;DHT22;8530;49.540;8.576;2023-08-06T08:34:05;21.20;96.60
16827;DHT22;8530;49.540;8.576;2023-08-06T08:36:31;21.30;96.20
16827;DHT22;8530;49.540;8.576;2023-08-06T08:38:58;21.40;96.00
16827;DHT22;8530;49.540;8.576;2023-08-06T08:41:27;21.50;95.70
16827;DHT22;8530;49.540;8.576;2023-08-06T08:43:54;21.60;95.50
16827;DHT22;8530;49.540;8.576;2023-08-06T08:46:24;21.70;95.20
16827;DHT22;8530;49.540;8.576;2023-08-06T08:48:52;21.80;94.90
16827;DHT22;8530;49.540;8.576;2023-08-06T08:51:20;21.60;94.40
16827;DHT22;8530;49.540;8.576;2023-08-06T08:53:47;21.40;94.20
16827;DHT22;8530;49.540;8.576;2023-08-06T08:56:15;21.30;94.10
16827;DHT22;8530;49.540;8.576;2023-08-06T08:58:42;21.40;94.20
16827;DHT22;8530;49.540;8.576;2023-08-06T09:01:09;21.50;94.10
16827;DHT22;8530;49.540;8.576;2023-08-06T09:03:37;21.80;94.00
16827;DHT22;8530;49.540;8.576;2023-08-06T09:06:06;22.10;93.80
16827;DHT22;8530;49.540;8.576;2023-08-06T09:08:39;22.30;93.50
16827;DHT22;8530;49.540;8.576;2023-08-06T09:11:09;22.30;92.80
16827;DHT22;8530;49.540;8.576;2023-08-06T09:13:37;21.90;92.20
16827;DHT22;8530;49.540;8.576;2023-08-06T09:16:04;21.60;92.00
16827;DHT22;8530;49.540;8.576;2023-08-06T09:18:31;21.30;91.90
16827;DHT22;8530;49.540;8.576;2023-08-06T09:20:59;21.20;92.00
16827;DHT22;8530;49.540;8.576;2023-08-06T09:23:30;21.10;91.90
16827;DHT22;8530;49.540;8.576;2023-08-06T09:25:57;20.90;91.70
16827;DHT22;8530;49.540;8.576;2023-08-06T09:28:24;20.60;91.60
16827;DHT22;8530;49.540;8.576;2023-08-06T09:30:52;20.30;91.60
16827;DHT22;8530;49.540;8.576;2023-08-06T09:33:22;20.10;91.70
16827;DHT22;8530;49.540;8.576;2023-08-06T09:35:49;19.90;91.90
16827;DHT22;8530;49.540;8.576;2023-08-06T09:38:17;20.10;92.20
16827;DHT22;8530;49.540;8.576;2023-08-06T09:40:44;20.40;92.20
16827;DHT22;8530;49.540;8.576;2023-08-06T09:43:11;21.10;92.30
16827;DHT22;8530;49.540;8.576;2023-08-06T09:45:39;21.60;92.00
16827;DHT22;8530;49.540;8.576;2023-08-06T09:48:07;22.20;91.70
16827;DHT22;8530;49.540;8.576;2023-08-06T09:50:35;22.60;91.20
16827;DHT22;8530;49.540;8.576;2023-08-06T09:53:03;22.60;90.50
16827;DHT22;8530;49.540;8.576;2023-08-06T09:55:32;22.30;89.80
16827;DHT22;8530;49.540;8.576;2023-08-06T09:57:59;22.00;89.00
16827;DHT22;8530;49.540;8.576;2023-08-06T10:00:26;21.70;88.70
16827;DHT22;8530;49.540;8.576;2023-08-06T10:02:54;21.40;88.60
16827;DHT22;8530;49.540;8.576;2023-08-06T10:05:22;21.30;88.90
16827;DHT22;8530;49.540;8.576;2023-08-06T10:07:49;21.50;89.80
16827;DHT22;8530;49.540;8.576;2023-08-06T10:10:16;22.00;90.10
16827;DHT22;8530;49.540;8.576;2023-08-06T10:12:48;22.30;89.70
16827;DHT22;8530;49.540;8.576;2023-08-06T10:15:20;22.60;88.90
16827;DHT22;8530;49.540;8.576;2023-08-06T10:17:51;22.90;88.50
16827;DHT22;8530;49.540;8.576;2023-08-06T10:20:19;23.40;87.90
16827;DHT22;8530;49.540;8.576;2023-08-06T10:23:00;23.70;86.90
16827;DHT22;8530;49.540;8.576;2023-08-06T10:25:30;23.60;84.50
16827;DHT22;8530;49.540;8.576;2023-08-06T10:28:00;23.30;82.80
16827;DHT22;8530;49.540;8.576;2023-08-06T10:30:28;22.80;81.50
16827;DHT22;8530;49.540;8.576;2023-08-06T10:32:56;22.20;80.80
16827;DHT22;8530;49.540;8.576;2023-08-06T10:35:30;21.70;81.50
16827;DHT22;8530;49.540;8.576;2023-08-06T10:38:03;21.30;81.20
16827;DHT22;8530;49.540;8.576;2023-08-06T10:40:31;20.90;81.30
16827;DHT22;8530;49.540;8.576;2023-08-06T10:43:00;20.60;82.30
16827;DHT22;8530;49.540;8.576;2023-08-06T10:45:27;20.40;82.30
16827;DHT22;8530;49.540;8.576;2023-08-06T10:47:56;20.20;82.80
16827;DHT22;8530;49.540;8.576;2023-08-06T10:50:23;20.00;83.40
16827;DHT22;8530;49.540;8.576;2023-08-06T10:52:50;19.90;83.90
16827;DHT22;8530;49.540;8.576;2023-08-06T10:55:26;19.90;84.30
16827;DHT22;8530;49.540;8.576;2023-08-06T10:57:54;19.70;84.50
16827;DHT22;8530;49.540;8.576;2023-08-06T11:00:22;19.70;84.70
16827;DHT22;8530;49.540;8.576;2023-08-06T11:02:50;19.50;85.00
16827;DHT22;8530;49.540;8.576;2023-08-06T11:05:17;19.50;85.50
16827;DHT22;8530;49.540;8.576;2023-08-06T11:07:44;19.50;85.80
16827;DHT22;8530;49.540;8.576;2023-08-06T11:10:13;19.40;86.00
16827;DHT22;8530;49.540;8.576;2023-08-06T11:12:40;19.40;86.40
16827;DHT22;8530;49.540;8.576;2023-08-06T11:15:07;19.40;86.60
16827;DHT22;8530;49.540;8.576;2023-08-06T11:17:36;19.50;86.70
16827;DHT22;8530;49.540;8.576;2023-08-06T11:20:04;19.50;86.60
16827;DHT22;8530;49.540;8.576;2023-08-06T11:22:31;19.50;86.60
16827;DHT22;8530;49.540;8.576;2023-08-06T11:24:58;19.50;86.30
16827;DHT22;8530;49.540;8.576;2023-08-06T11:27:27;19.50;86.10
16827;DHT22;8530;49.540;8.576;2023-08-06T11:29:54;19.50;86.20
16827;DHT22;8530;49.540;8.576;2023-08-06T11:32:21;19.60;86.40
16827;DHT22;8530;49.540;8.576;2023-08-06T11:34:49;19.90;86.50
16827;DHT22;8530;49.540;8.576;2023-08-06T11:37:16;20.30;86.40
16827;DHT22;8530;49.540;8.576;2023-08-06T11:39:46;20.60;85.80
16827;DHT22;8530;49.540;8.576;2023-08-06T11:42:14;20.70;85.20
16827;DHT22;8530;49.540;8.576;2023-08-06T11:44:41;20.70;84.50
16827;DHT22;8530;49.540;8.576;2023-08-06T11:47:13;20.60;83.80
16827;DHT22;8530;49.540;8.576;2023-08-06T11:49:41;20.50;83.30
16827;DHT22;8530;49.540;8.576;2023-08-06T11:52:14;20.40;83.20
16827;DHT22;8530;49.540;8.576;2023-08-06T11:54:44;20.20;83.00
16827;DHT22;8530;49.540;8.576;2023-08-06T11:57:11;20.10;83.00
16827;DHT22;8530;49.540;8.576;2023-08-06T11:59:38;20.00;83.00
16827;DHT22;8530;49.540;8.576;2023-08-06T12:02:08;19.90;82.80
16827;DHT22;8530;49.540;8.576;2023-08-06T12:04:57;19.90;82.80
16827;DHT22;8530;49.540;8.576;2023-08-06T12:07:30;19.90;82.70
16827;DHT22;8530;49.540;8.576;2023-08-06T12:09:57;19.90;82.70
16827;DHT22;8530;49.540;8.576;2023-08-06T12:12:24;19.90;82.50
16827;DHT22;8530;49.540;8.576;2023-08-06T12:14:51;19.90;82.30
16827;DHT22;8530;49.540;8.576;2023-08-06T12:17:17;19.90;81.80
16827;DHT22;8530;49.540;8.576;2023-08-06T12:19:45;19.90;81.70
16827;DHT22;8530;49.540;8.576;2023-08-06T12:22:13;19.90;81.50
16827;DHT22;8530;49.540;8.576;2023-08-06T12:24:41;19.90;81.40
16827;DHT22;8530;49.540;8.576;2023-08-06T12:27:08;19.90;81.00
16827;DHT22;8530;49.540;8.576;2023-08-06T12:29:35;19.80;80.50
16827;DHT22;8530;49.540;8.576;2023-08-06T12:32:02;19.70;80.40
16827;DHT22;8530;49.540;8.576;2023-08-06T12:34:29;19.80;80.30
16827;DHT22;8530;49.540;8.576;2023-08-06T12:36:56;19.80;79.90
16827;DHT22;8530;49.540;8.576;2023-08-06T12:39:23;19.80;80.10
16827;DHT22;8530;49.540;8.576;2023-08-06T12:41:51;19.80;79.10
16827;DHT22;8530;49.540;8.576;2023-08-06T12:44:18;19.80;78.40
16827;DHT22;8530;49.540;8.576;2023-08-06T12:46:44;19.80;77.90
16827;DHT22;8530;49.540;8.576;2023-08-06T12:49:11;19.80;77.60
16827;DHT22;8530;49.540;8.576;2023-08-06T12:51:38;19.90;77.40
16827;DHT22;8530;49.540;8.576;2023-08-06T12:54:04;20.00;76.80
16827;DHT22;8530;49.540;8.576;2023-08-06T12:56:31;20.00;76.30
16827;DHT22;8530;49.540;8.576;2023-08-06T12:58:59;20.00;75.90
16827;DHT22;8530;49.540;8.576;2023-08-06T13:01:26;20.00;75.60
16827;DHT22;8530;49.540;8.576;2023-08-06T13:03:52;20.00;75.60
16827;DHT22;8530;49.540;8.576;2023-08-06T13:06:19;20.00;75.40
16827;DHT22;8530;49.540;8.576;2023-08-06T13:09:01;20.00;75.50
16827;DHT22;8530;49.540;8.576;2023-08-06T13:11:27;20.00;75.60
16827;DHT22;8530;49.540;8.576;2023-08-06T13:13:54;19.80;75.50
16827;DHT22;8530;49.540;8.576;2023-08-06T13:16:22;19.60;76.40
16827;DHT22;8530;49.540;8.576;2023-08-06T13:18:49;19.50;76.40
16827;DHT22;8530;49.540;8.576;2023-08-06T13:21:15;19.40;76.90
16827;DHT22;8530;49.540;8.576;2023-08-06T13:23:42;19.40;77.20
16827;DHT22;8530;49.540;8.576;2023-08-06T13:26:09;19.40;77.30
16827;DHT22;8530;49.540;8.576;2023-08-06T13:28:35;19.40;77.50
16827;DHT22;8530;49.540;8.576;2023-08-06T13:31:02;19.40;77.40
16827;DHT22;8530;49.540;8.576;2023-08-06T13:33:30;19.40;77.30
16827;DHT22;8530;49.540;8.576;2023-08-06T13:35:57;19.40;77.30
16827;DHT22;8530;49.540;8.576;2023-08-06T13:38:24;19.40;77.20
16827;DHT22;8530;49.540;8.576;2023-08-06T13:40:50;19.50;77.20
16827;DHT22;8530;49.540;8.576;2023-08-06T13:43:17;19.50;77.10
16827;DHT22;8530;49.540;8.576;2023-08-06T13:45:44;19.50;76.50
16827;DHT22;8530;49.540;8.576;2023-08-06T13:48:11;19.40;76.60
16827;DHT22;8530;49.540;8.576;2023-08-06T13:50:39;19.40;76.50
16827;DHT22;8530;49.540;8.576;2023-08-06T13:53:06;19.40;76.70
16827;DHT22;8530;49.540;8.576;2023-08-06T13:55:32;19.40;77.40
16827;DHT22;8530;49.540;8.576;2023-08-06T13:57:59;19.50;77.10
16827;DHT22;8530;49.540;8.576;2023-08-06T14:00:26;19.50;77.10
16827;DHT22;8530;49.540;8.576;2023-08-06T14:02:52;19.50;77.10
16827;DHT22;8530;49.540;8.576;2023-08-06T14:05:19;19.40;77.00
16827;DHT22;8530;49.540;8.576;2023-08-06T14:07:47;19.30;77.20
16827;DHT22;8530;49.540;8.576;2023-08-06T14:10:14;19.30;77.70
16827;DHT22;8530;49.540;8.576;2023-08-06T14:12:41;19.30;78.20
16827;DHT22;8530;49.540;8.576;2023-08-06T14:15:08;19.30;78.50
16827;DHT22;8530;49.540;8.576;2023-08-06T14:17:35;19.30;78.40
16827;DHT22;8530;49.540;8.576;2023-08-06T14:20:02;19.30;78.40
16827;DHT22;8530;49.540;8.576;2023-08-06T14:22:29;19.30;78.40
16827;DHT22;8530;49.540;8.576;2023-08-06T14:24:58;19.40;78.50
16827;DHT22;8530;49.540;8.576;2023-08-06T14:27:25;19.40;78.50
16827;DHT22;8530;49.540;8.576;2023-08-06T14:29:52;19.40;78.50
16827;DHT22;8530;49.540;8.576;2023-08-06T14:32:18;19.50;78.70
16827;DHT22;8530;49.540;8.576;2023-08-06T14:34:45;19.60;78.70
16827;DHT22;8530;49.540;8.576;2023-08-06T14:37:12;19.60;78.40
16827;DHT22;8530;49.540;8.576;2023-08-06T14:39:38;19.60;78.30
16827;DHT22;8530;49.540;8.576;2023-08-06T14:42:06;19.60;78.20
16827;DHT22;8530;49.540;8.576;2023-08-06T14:44:33;19.40;78.00
16827;DHT22;8530;49.540;8.576;2023-08-06T14:47:00;19.40;78.10
16827;DHT22;8530;49.540;8.576;2023-08-06T14:49:26;19.30;78.30
16827;DHT22;8530;49.540;8.576;2023-08-06T14:51:53;19.30;78.60
16827;DHT22;8530;49.540;8.576;2023-08-06T14:54:20;19.30;78.80
16827;DHT22;8530;49.540;8.576;2023-08-06T14:56:46;19.30;78.90
16827;DHT22;8530;49.540;8.576;2023-08-06T14:59:14;19.30;78.90
16827;DHT22;8530;49.540;8.576;2023-08-06T15:01:41;19.30;79.00
16827;DHT22;8530;49.540;8.576;2023-08-06T15:04:08;19.30;79.00
16827;DHT22;8530;49.540;8.576;2023-08-06T15:06:34;19.30;78.80
16827;DHT22;8530;49.540;8.576;2023-08-06T15:09:01;19.30;78.70
16827;DHT22;8530;49.540;8.576;2023-08-06T15:11:28;19.30;78.80
16827;DHT22;8530;49.540;8.576;2023-08-06T15:13:55;19.30;79.00
16827;DHT22;8530;49.540;8.576;2023-08-06T15:16:23;19.40;79.00
16827;DHT22;8530;49.540;8.576;2023-08-06T15:18:49;19.40;79.00
16827;DHT22;8530;49.540;8.576;2023-08-06T15:21:16;19.40;79.00
16827;DHT22;8530;49.540;8.576;2023-08-06T15:23:43;19.50;79.10
16827;DHT22;8530;49.540;8.576;2023-08-06T15:26:09;19.40;79.00
16827;DHT22;8530;49.540;8.576;2023-08-06T15:28:36;19.40;79.20
16827;DHT22;8530;49.540;8.576;2023-08-06T15:31:03;19.30;79.20
16827;DHT22;8530;49.540;8.576;2023-08-06T15:33:32;19.20;79.20
16827;DHT22;8530;49.540;8.576;2023-08-06T15:35:59;19.20;79.40
16827;DHT22;8530;49.540;8.576;2023-08-06T15:38:26;19.20;79.40
16827;DHT22;8530;49.540;8.576;2023-08-06T15:40:53;19.10;79.30
16827;DHT22;8530;49.540;8.576;2023-08-06T15:43:20;19.10;79.10
16827;DHT22;8530;49.540;8.576;2023-08-06T15:45:47;19.00;79.10